createdAt,value
2023-03-27T00:01:27.733Z,1.41
2023-03-27T00:03:55.913Z,1.42
2023-03-27T00:06:25.386Z,1.43
2023-03-27T00:08:53.630Z,1.45
2023-03-27T00:11:25.003Z,1.47
2023-03-27T00:13:55.584Z,1.49
2023-03-27T00:16:26.755Z,1.52
2023-03-27T00:18:55.543Z,1.52
2023-03-27T00:21:24.585Z,1.54
2023-03-27T00:23:54.705Z,1.53
2023-03-27T00:26:23.048Z,1.50
2023-03-27T00:28:51.267Z,1.50
2023-03-27T00:31:19.439Z,1.47
2023-03-27T00:33:47.402Z,1.41
2023-03-27T00:36:15.504Z,1.35
2023-03-27T00:38:43.925Z,1.29
2023-03-27T00:41:12.816Z,1.22
2023-03-27T00:43:43.929Z,1.09
2023-03-27T00:46:15.526Z,0.99
2023-03-27T00:48:48.322Z,0.92
2023-03-27T00:51:18.022Z,0.90
2023-03-27T00:53:47.715Z,0.90
2023-03-27T00:56:16.684Z,0.90
2023-03-27T00:58:48.780Z,0.90
2023-03-27T01:01:19.219Z,0.92
2023-03-27T01:03:49.147Z,0.92
2023-03-27T01:06:19.086Z,0.88
2023-03-27T01:08:48.268Z,0.84
2023-03-27T01:11:43.002Z,0.79
2023-03-27T01:14:35.441Z,0.73
2023-03-27T01:17:23.286Z,0.67
2023-03-27T01:20:10.122Z,0.64
2023-03-27T01:22:47.285Z,0.60
2023-03-27T01:25:35.484Z,0.58
2023-03-27T01:28:12.659Z,0.55
2023-03-27T01:30:59.388Z,0.52
2023-03-27T01:33:46.217Z,0.48
2023-03-27T01:36:36.223Z,0.44
2023-03-27T01:39:27.539Z,0.38
2023-03-27T01:42:14.438Z,0.30
2023-03-27T01:45:21.869Z,0.24
2023-03-27T01:48:04.736Z,0.20
2023-03-27T01:50:32.604Z,0.19
2023-03-27T01:53:05.286Z,0.16
2023-03-27T01:55:39.520Z,0.12
2023-03-27T01:58:14.101Z,0.10
2023-03-27T02:00:52.494Z,0.01
2023-03-27T02:03:29.835Z,-0.06
2023-03-27T02:06:06.813Z,-0.08
2023-03-27T02:08:50.411Z,-0.08
2023-03-27T02:11:25.682Z,-0.09
2023-03-27T02:14:01.312Z,-0.12
2023-03-27T02:16:34.644Z,-0.15
2023-03-27T02:19:11.019Z,-0.17
2023-03-27T02:21:39.244Z,-0.19
2023-03-27T02:24:09.091Z,-0.20
2023-03-27T02:26:38.226Z,-0.23
2023-03-27T02:29:36.976Z,-0.25
2023-03-27T02:32:29.242Z,-0.28
2023-03-27T02:35:12.800Z,-0.27
2023-03-27T02:37:55.686Z,-0.30
2023-03-27T02:41:20.722Z,-0.36
2023-03-27T02:44:21.010Z,-0.41
2023-03-27T02:47:08.664Z,-0.43
2023-03-27T02:49:46.913Z,-0.44
2023-03-27T02:52:38.712Z,-0.46
2023-03-27T02:55:13.012Z,-0.48
2023-03-27T02:57:52.589Z,-0.48
2023-03-27T03:00:42.165Z,-0.48
2023-03-27T03:03:37.694Z,-0.50
2023-03-27T03:06:16.200Z,-0.57
2023-03-27T03:08:46.751Z,-0.62
2023-03-27T03:11:15.093Z,-0.65
2023-03-27T03:13:43.688Z,-0.66
2023-03-27T03:16:11.898Z,-0.68
2023-03-27T03:18:41.256Z,-0.66
2023-03-27T03:21:09.630Z,-0.66
2023-03-27T03:23:39.199Z,-0.69
2023-03-27T03:26:08.226Z,-0.75
2023-03-27T03:29:00.790Z,-0.81
2023-03-27T03:31:43.295Z,-0.84
2023-03-27T03:34:14.794Z,-0.84
2023-03-27T03:36:44.932Z,-0.83
2023-03-27T03:39:13.231Z,-0.83
2023-03-27T03:41:43.413Z,-0.84
2023-03-27T03:44:11.657Z,-0.84
2023-03-27T03:46:40.773Z,-0.85
2023-03-27T03:49:09.054Z,-0.85
2023-03-27T03:51:38.950Z,-0.86
2023-03-27T03:54:09.276Z,-0.87
2023-03-27T03:56:41.794Z,-0.89
2023-03-27T03:59:14.782Z,-0.87
2023-03-27T04:02:53.814Z,-0.84
2023-03-27T04:05:24.018Z,-0.81
2023-03-27T04:07:53.305Z,-0.78
2023-03-27T04:10:27.814Z,-0.76
2023-03-27T04:12:57.240Z,-0.75
2023-03-27T04:15:30.565Z,-0.71
2023-03-27T04:18:01.477Z,-0.68
2023-03-27T04:20:29.825Z,-0.64
2023-03-27T04:23:02.462Z,-0.64
2023-03-27T04:25:31.579Z,-0.61
2023-03-27T04:28:04.388Z,-0.56
2023-03-27T04:34:38.430Z,-0.47
2023-03-27T04:37:10.366Z,-0.46
2023-03-27T04:39:46.414Z,-0.42
2023-03-27T04:42:14.881Z,-0.39
2023-03-27T04:44:43.511Z,-0.36
2023-03-27T04:47:11.487Z,-0.35
2023-03-27T04:49:46.784Z,-0.32
2023-03-27T04:52:21.483Z,-0.26
2023-03-27T04:54:49.439Z,-0.20
2023-03-27T04:57:19.415Z,-0.12
2023-03-27T04:59:50.416Z,-0.08
2023-03-27T05:02:37.098Z,-0.08
2023-03-27T05:05:31.909Z,-0.04
2023-03-27T05:08:01.777Z,0.02
2023-03-27T05:10:30.038Z,0.12
2023-03-27T05:12:58.867Z,0.21
2023-03-27T05:15:28.125Z,0.27
2023-03-27T05:17:56.458Z,0.34
2023-03-27T05:20:26.876Z,0.42
2023-03-27T05:22:59.077Z,0.58
2023-03-27T05:25:29.353Z,0.86
2023-03-27T05:28:00.424Z,1.14
2023-03-27T05:30:31.867Z,1.37
2023-03-27T05:33:14.695Z,1.57
2023-03-27T05:35:46.440Z,1.80
2023-03-27T05:38:15.592Z,2.17
2023-03-27T05:40:53.785Z,2.60
2023-03-27T05:43:23.043Z,2.93
2023-03-27T05:45:51.547Z,3.17
2023-03-27T05:48:19.487Z,3.33
2023-03-27T05:50:47.851Z,3.45
2023-03-27T05:53:20.430Z,3.49
2023-03-27T05:56:34.879Z,3.49
2023-03-27T05:59:04.344Z,3.47
2023-03-27T06:01:37.667Z,3.45
2023-03-27T06:04:09.530Z,3.44
2023-03-27T06:07:28.652Z,3.43
2023-03-27T06:09:58.412Z,3.41
2023-03-27T06:12:46.415Z,3.41
2023-03-27T06:15:25.920Z,3.40
2023-03-27T06:18:16.732Z,3.41
2023-03-27T06:20:45.010Z,3.40
2023-03-27T06:23:13.417Z,3.39
2023-03-27T06:25:43.601Z,3.41
2023-03-27T06:28:12.314Z,3.43
2023-03-27T06:30:50.730Z,3.46
2023-03-27T06:33:27.845Z,3.49
2023-03-27T06:36:01.013Z,3.54
2023-03-27T06:38:34.619Z,3.56
2023-03-27T06:41:02.929Z,3.60
2023-03-27T06:43:47.983Z,3.65
2023-03-27T06:46:42.731Z,3.61
2023-03-27T06:49:31.717Z,3.68
2023-03-27T06:52:00.711Z,3.69
2023-03-27T06:54:29.409Z,3.75
2023-03-27T06:56:57.509Z,3.84
2023-03-27T06:59:26.387Z,3.90
2023-03-27T07:02:17.842Z,4.08
2023-03-27T07:05:08.399Z,4.28
2023-03-27T07:07:41.875Z,4.46
2023-03-27T07:10:11.791Z,4.84
2023-03-27T07:12:41.561Z,5.10
2023-03-27T07:15:10.680Z,5.48
2023-03-27T07:17:48.699Z,6.20
2023-03-27T07:20:19.777Z,6.92
2023-03-27T07:22:48.325Z,7.24
2023-03-27T07:25:37.441Z,7.55
2023-03-27T07:28:10.689Z,7.91
2023-03-27T07:30:39.982Z,8.37
2023-03-27T07:33:11.270Z,8.58
2023-03-27T07:35:44.185Z,8.58
2023-03-27T07:38:42.298Z,8.40
2023-03-27T07:41:26.266Z,8.10
2023-03-27T07:44:01.018Z,7.76
2023-03-27T07:46:35.603Z,7.47
2023-03-27T07:49:04.940Z,7.32
2023-03-27T07:51:33.183Z,7.26
2023-03-27T07:54:04.309Z,7.07
2023-03-27T07:56:35.951Z,7.10
2023-03-27T07:59:22.744Z,7.04
2023-03-27T08:01:51.903Z,6.91
2023-03-27T08:04:20.825Z,6.76
2023-03-27T08:07:10.126Z,6.69
2023-03-27T08:09:39.115Z,6.71
2023-03-27T08:12:08.073Z,6.78
2023-03-27T08:14:41.630Z,6.95
2023-03-27T08:17:30.133Z,7.11
2023-03-27T08:19:59.624Z,7.16
2023-03-27T08:22:28.695Z,6.96
2023-03-27T08:25:35.630Z,6.68
2023-03-27T08:28:07.372Z,6.47
2023-03-27T08:30:35.677Z,6.25
2023-03-27T08:33:04.040Z,6.29
2023-03-27T08:35:33.798Z,6.43
2023-03-27T08:38:03.868Z,6.66
2023-03-27T08:40:38.696Z,6.83
2023-03-27T08:43:26.591Z,6.83
2023-03-27T08:46:00.624Z,6.75
2023-03-27T08:48:52.049Z,6.59
2023-03-27T08:51:28.138Z,6.40
2023-03-27T08:54:03.478Z,6.32
2023-03-27T08:56:32.271Z,6.29
2023-03-27T08:59:01.863Z,6.23
2023-03-27T09:01:48.108Z,6.24
2023-03-27T09:04:17.670Z,6.27
2023-03-27T09:07:07.119Z,6.25
2023-03-27T09:09:46.735Z,6.22
2023-03-27T09:12:17.580Z,6.08
2023-03-27T09:14:57.589Z,5.91
2023-03-27T09:17:37.785Z,5.73
2023-03-27T09:20:23.562Z,5.71
2023-03-27T09:22:55.318Z,5.75
2023-03-27T09:26:09.563Z,5.79
2023-03-27T09:29:25.790Z,5.85
2023-03-27T09:32:16.234Z,5.82
2023-03-27T09:34:45.184Z,5.87
2023-03-27T09:37:17.490Z,5.90
2023-03-27T09:39:52.379Z,5.90
2023-03-27T09:42:33.264Z,5.99
2023-03-27T09:45:08.118Z,6.12
2023-03-27T09:47:56.960Z,6.23
2023-03-27T09:50:44.475Z,6.16
2023-03-27T09:53:36.271Z,6.05
2023-03-27T09:56:16.195Z,5.89
2023-03-27T09:58:49.371Z,5.80
2023-03-27T10:01:31.159Z,5.68
2023-03-27T10:04:19.069Z,5.62
2023-03-27T10:07:01.903Z,5.58
2023-03-27T10:10:15.690Z,5.47
2023-03-27T10:13:11.273Z,5.39
2023-03-27T10:15:44.382Z,5.27
2023-03-27T10:18:27.492Z,5.13
2023-03-27T10:21:47.649Z,5.05
2023-03-27T10:24:46.181Z,5.02
2023-03-27T10:27:33.985Z,4.96
2023-03-27T10:30:27.456Z,4.91
2023-03-27T10:32:59.381Z,4.85
2023-03-27T10:35:49.071Z,4.78
2023-03-27T10:38:28.738Z,4.64
2023-03-27T10:41:12.077Z,4.55
2023-03-27T10:43:47.984Z,4.56
2023-03-27T10:46:23.729Z,4.70
2023-03-27T10:49:01.135Z,4.88
2023-03-27T10:51:53.873Z,5.00
2023-03-27T10:54:43.068Z,5.06
2023-03-27T10:57:30.872Z,5.05
2023-03-27T11:04:45.420Z,4.97
2023-03-27T11:07:50.387Z,4.83
2023-03-27T11:10:36.769Z,4.79
2023-03-27T11:13:14.578Z,4.85
2023-03-27T11:15:51.044Z,5.01
2023-03-27T11:18:45.510Z,5.40
2023-03-27T11:21:38.703Z,5.88
2023-03-27T11:24:17.616Z,6.31
2023-03-27T11:27:03.693Z,6.59
2023-03-27T11:29:44.283Z,6.69
2023-03-27T11:32:29.296Z,6.47
2023-03-27T11:35:21.549Z,6.30
2023-03-27T11:38:06.496Z,6.04
2023-03-27T11:40:46.454Z,6.02
2023-03-27T11:43:16.674Z,6.18
2023-03-27T11:46:08.992Z,6.41
2023-03-27T11:48:46.537Z,6.66
2023-03-27T11:51:38.050Z,6.67
2023-03-27T11:54:18.113Z,6.45
2023-03-27T11:57:03.405Z,6.26
2023-03-27T11:59:51.390Z,5.92
2023-03-27T12:02:37.438Z,5.88
2023-03-27T12:05:20.905Z,5.86
2023-03-27T12:07:54.427Z,5.93
2023-03-27T12:10:34.985Z,6.06
2023-03-27T12:14:01.693Z,6.25
2023-03-27T12:16:56.385Z,6.28
2023-03-27T12:19:29.690Z,6.34
2023-03-27T12:23:02.748Z,6.50
2023-03-27T12:26:21.956Z,6.53
2023-03-27T12:29:23.358Z,6.59
2023-03-27T12:32:41.080Z,6.53
2023-03-27T12:35:31.230Z,6.30
2023-03-27T12:38:07.620Z,6.04
2023-03-27T12:40:48.514Z,5.81
2023-03-27T12:43:30.546Z,5.64
2023-03-27T12:46:37.404Z,5.56
2023-03-27T12:49:10.812Z,5.52
2023-03-27T12:51:54.183Z,5.48
2023-03-27T12:54:41.102Z,5.60
2023-03-27T12:57:46.068Z,5.80
2023-03-27T13:00:28.847Z,5.87
2023-03-27T13:03:25.857Z,5.86
2023-03-27T13:06:00.585Z,5.77
2023-03-27T13:08:34.462Z,5.63
2023-03-27T13:11:17.950Z,5.58
2023-03-27T13:14:24.241Z,5.54
2023-03-27T13:17:01.945Z,5.60
2023-03-27T13:19:34.142Z,5.64
2023-03-27T13:22:25.432Z,5.85
2023-03-27T13:25:09.991Z,5.91
2023-03-27T13:27:49.671Z,5.88
2023-03-27T13:30:43.638Z,5.70
2023-03-27T13:33:31.822Z,5.61
2023-03-27T13:36:22.839Z,5.54
2023-03-27T13:38:51.933Z,5.44
2023-03-27T13:41:45.107Z,5.34
2023-03-27T13:44:57.885Z,5.22
2023-03-27T13:47:33.564Z,5.17
2023-03-27T13:50:16.696Z,5.01
2023-03-27T13:53:03.653Z,4.88
2023-03-27T13:56:17.092Z,4.71
2023-03-27T13:59:39.230Z,4.65
2023-03-27T14:02:16.476Z,4.59
2023-03-27T14:04:59.400Z,4.63
2023-03-27T14:08:09.049Z,4.64
2023-03-27T14:11:18.657Z,4.65
2023-03-27T14:13:54.638Z,4.75
2023-03-27T14:16:53.348Z,4.82
2023-03-27T14:19:58.020Z,4.91
2023-03-27T14:22:43.209Z,4.95
2023-03-27T14:25:25.530Z,5.02
2023-03-27T14:27:59.977Z,5.04
2023-03-27T14:30:30.798Z,5.01
2023-03-27T14:33:23.861Z,4.92
2023-03-27T14:36:03.368Z,4.86
2023-03-27T14:38:34.112Z,4.83
2023-03-27T14:41:04.737Z,4.78
2023-03-27T14:43:51.590Z,4.73
2023-03-27T14:46:23.628Z,4.70
2023-03-27T14:48:56.855Z,4.58
2023-03-27T14:51:37.630Z,4.53
2023-03-27T14:54:14.417Z,4.38
2023-03-27T14:56:53.875Z,4.12
2023-03-27T14:59:26.924Z,3.95
2023-03-27T15:02:02.215Z,3.80
2023-03-27T15:04:32.927Z,3.69
2023-03-27T15:07:19.984Z,3.57
2023-03-27T15:10:06.408Z,3.48
2023-03-27T15:13:00.177Z,3.31
2023-03-27T15:15:42.715Z,3.20
2023-03-27T15:18:22.789Z,3.18
2023-03-27T15:20:52.935Z,3.17
2023-03-27T15:23:30.017Z,3.04
2023-03-27T15:26:03.666Z,3.04
2023-03-27T15:29:01.469Z,2.99
2023-03-27T15:31:33.103Z,2.99
2023-03-27T15:34:15.693Z,2.99
2023-03-27T15:36:58.315Z,2.98
2023-03-27T15:39:26.921Z,2.98
2023-03-27T15:42:05.363Z,2.98
2023-03-27T15:44:34.191Z,2.98
2023-03-27T15:47:02.974Z,2.92
2023-03-27T15:49:33.454Z,2.91
2023-03-27T15:52:28.516Z,2.87
2023-03-27T15:54:56.999Z,2.89
2023-03-27T15:57:27.061Z,2.90
2023-03-27T16:00:00.557Z,2.80
2023-03-27T16:02:32.683Z,2.77
2023-03-27T16:05:01.409Z,2.79
2023-03-27T16:07:38.956Z,2.78
2023-03-27T16:10:07.797Z,2.78
2023-03-27T16:13:01.960Z,2.77
2023-03-27T16:15:36.799Z,2.76
2023-03-27T16:18:19.215Z,2.76
2023-03-27T16:20:47.882Z,2.78
2023-03-27T16:23:15.865Z,2.79
2023-03-27T16:25:44.530Z,2.74
2023-03-27T16:28:14.239Z,2.73
2023-03-27T16:30:42.456Z,2.69
2023-03-27T16:33:21.251Z,2.65
2023-03-27T16:35:50.454Z,2.62
2023-03-27T16:38:18.613Z,2.60
2023-03-27T16:40:46.746Z,2.57
2023-03-27T16:43:14.995Z,2.55
2023-03-27T16:45:43.016Z,2.56
2023-03-27T16:48:11.740Z,2.53
2023-03-27T16:50:40.414Z,2.39
2023-03-27T16:53:08.684Z,2.24
2023-03-27T16:55:38.862Z,2.14
2023-03-27T16:58:07.263Z,2.03
2023-03-27T17:00:36.003Z,1.90
2023-03-27T17:03:04.364Z,1.84
2023-03-27T17:05:34.493Z,1.78
2023-03-27T17:08:03.699Z,1.70
2023-03-27T17:10:32.797Z,1.64
2023-03-27T17:13:00.864Z,1.58
2023-03-27T17:15:29.008Z,1.52
2023-03-27T17:17:57.344Z,1.48
2023-03-27T17:20:25.409Z,1.46
2023-03-27T17:22:53.651Z,1.39
2023-03-27T17:25:22.165Z,1.33
2023-03-27T17:27:50.663Z,1.28
2023-03-27T17:30:30.543Z,1.25
2023-03-27T17:33:05.263Z,1.22
2023-03-27T17:35:34.328Z,1.18
2023-03-27T17:38:03.644Z,1.16
2023-03-27T17:40:32.097Z,1.12
2023-03-27T17:43:00.760Z,1.09
2023-03-27T17:45:29.439Z,1.05
2023-03-27T17:47:58.045Z,1.01
2023-03-27T17:50:26.175Z,0.99
2023-03-27T17:52:54.376Z,0.91
2023-03-27T17:55:22.720Z,0.86
2023-03-27T17:58:01.850Z,0.80
2023-03-27T18:00:31.778Z,0.73
2023-03-27T18:02:59.792Z,0.68
2023-03-27T18:05:28.235Z,0.63
2023-03-27T18:07:56.468Z,0.57
2023-03-27T18:10:26.136Z,0.53
2023-03-27T18:12:54.807Z,0.50
2023-03-27T18:15:22.898Z,0.49
2023-03-27T18:17:51.389Z,0.47
2023-03-27T18:20:19.581Z,0.44
2023-03-27T18:22:47.945Z,0.44
2023-03-27T18:25:16.177Z,0.40
2023-03-27T18:27:45.096Z,0.39
2023-03-27T18:30:15.375Z,0.37
2023-03-27T18:32:45.681Z,0.34
2023-03-27T18:35:16.744Z,0.33
2023-03-27T18:37:46.834Z,0.27
2023-03-27T18:40:17.242Z,0.23
2023-03-27T18:42:45.390Z,0.19
2023-03-27T18:45:16.804Z,0.14
2023-03-27T18:47:45.416Z,0.09
2023-03-27T18:50:15.317Z,0.05
2023-03-27T18:52:44.045Z,0.02
2023-03-27T18:55:13.113Z,-0.03
2023-03-27T18:57:41.287Z,-0.07
2023-03-27T19:04:36.121Z,-0.16
2023-03-27T19:07:04.115Z,-0.21
2023-03-27T19:09:40.850Z,-0.23
2023-03-27T19:12:10.776Z,-0.26
2023-03-27T19:15:00.451Z,-0.29
2023-03-27T19:18:02.394Z,-0.32
2023-03-27T19:20:49.835Z,-0.33
2023-03-27T19:23:45.519Z,-0.36
2023-03-27T19:26:17.165Z,-0.38
2023-03-27T19:28:49.127Z,-0.40
2023-03-27T19:31:17.722Z,-0.43
2023-03-27T19:33:46.326Z,-0.46
2023-03-27T19:36:14.575Z,-0.48
2023-03-27T19:38:42.795Z,-0.52
2023-03-27T19:41:11.633Z,-0.56
2023-03-27T19:43:39.824Z,-0.62
2023-03-27T19:46:16.231Z,-0.68
2023-03-27T19:48:45.736Z,-0.70
2023-03-27T19:51:21.806Z,-0.73
2023-03-27T19:53:52.626Z,-0.79
2023-03-27T19:56:23.466Z,-0.83
2023-03-27T19:58:52.399Z,-0.89
2023-03-27T20:01:21.881Z,-0.93
2023-03-27T20:03:50.540Z,-0.98
2023-03-27T20:06:18.977Z,-1.02
2023-03-27T20:08:47.203Z,-1.08
2023-03-27T20:11:16.957Z,-1.11
2023-03-27T20:13:55.236Z,-1.16
2023-03-27T20:16:27.493Z,-1.21
2023-03-27T20:19:03.912Z,-1.27
2023-03-27T20:21:37.795Z,-1.31
2023-03-27T20:24:10.117Z,-1.36
2023-03-27T20:26:42.085Z,-1.40
2023-03-27T20:29:17.077Z,-1.46
2023-03-27T20:31:46.792Z,-1.49
2023-03-27T20:34:20.039Z,-1.54
2023-03-27T20:36:53.648Z,-1.60
2023-03-27T20:39:47.399Z,-1.66
2023-03-27T20:42:18.122Z,-1.71
2023-03-27T20:44:47.163Z,-1.77
2023-03-27T20:47:19.136Z,-1.83
2023-03-27T20:49:48.945Z,-1.89
2023-03-27T20:52:19.502Z,-1.94
2023-03-27T20:54:47.955Z,-1.98
2023-03-27T20:57:17.812Z,-2.02
2023-03-27T20:59:48.269Z,-2.05
2023-03-27T21:02:19.253Z,-2.10
2023-03-27T21:04:48.190Z,-2.14
2023-03-27T21:07:16.832Z,-2.18
2023-03-27T21:09:46.768Z,-2.23
2023-03-27T21:12:14.814Z,-2.27
2023-03-27T21:14:42.956Z,-2.32
2023-03-27T21:17:12.903Z,-2.37
2023-03-27T21:19:41.114Z,-2.41
2023-03-27T21:22:09.355Z,-2.46
2023-03-27T21:24:37.499Z,-2.51
2023-03-27T21:27:06.040Z,-2.56
2023-03-27T21:29:34.269Z,-2.59
2023-03-27T21:32:02.355Z,-2.62
2023-03-27T21:34:30.819Z,-2.67
2023-03-27T21:36:58.894Z,-2.71
2023-03-27T21:39:27.270Z,-2.74
2023-03-27T21:41:55.570Z,-2.80
2023-03-27T21:44:23.572Z,-2.85
2023-03-27T21:46:51.618Z,-2.90
2023-03-27T21:49:19.682Z,-2.96
2023-03-27T21:51:47.879Z,-2.99
2023-03-27T21:54:16.173Z,-3.05
2023-03-27T21:56:44.242Z,-3.08
2023-03-27T21:59:12.313Z,-3.12
2023-03-27T22:01:40.314Z,-3.16
2023-03-27T22:04:08.352Z,-3.21
2023-03-27T22:06:36.722Z,-3.25
2023-03-27T22:09:04.790Z,-3.28
2023-03-27T22:11:33.000Z,-3.34
2023-03-27T22:14:01.255Z,-3.37
2023-03-27T22:16:29.502Z,-3.41
2023-03-27T22:18:57.500Z,-3.44
2023-03-27T22:21:29.958Z,-3.46
2023-03-27T22:23:59.254Z,-3.49
2023-03-27T22:26:33.503Z,-3.54
2023-03-27T22:29:02.089Z,-3.57
2023-03-27T22:31:30.711Z,-3.61
2023-03-27T22:34:00.299Z,-3.65
2023-03-27T22:36:28.561Z,-3.71
2023-03-27T22:38:56.766Z,-3.76
2023-03-27T22:41:25.837Z,-3.82
2023-03-27T22:43:54.121Z,-3.86
2023-03-27T22:46:23.841Z,-3.92
2023-03-27T22:48:56.567Z,-3.97
2023-03-27T22:51:25.554Z,-4.01
2023-03-27T22:53:53.848Z,-4.06
2023-03-27T22:56:21.923Z,-4.13
2023-03-27T22:58:50.165Z,-4.19
2023-03-27T23:01:18.337Z,-4.24
2023-03-27T23:03:46.824Z,-4.29
2023-03-27T23:06:21.340Z,-4.34
2023-03-27T23:08:50.116Z,-4.33
2023-03-27T23:11:19.401Z,-4.34
2023-03-27T23:13:48.422Z,-4.34
2023-03-27T23:16:16.544Z,-4.34
2023-03-27T23:18:44.671Z,-4.33
2023-03-27T23:21:14.293Z,-4.32
2023-03-27T23:23:42.848Z,-4.32
2023-03-27T23:26:12.977Z,-4.32
2023-03-27T23:28:42.237Z,-4.32
2023-03-27T23:31:13.897Z,-4.31
2023-03-27T23:33:47.832Z,-4.31
2023-03-27T23:36:24.970Z,-4.32
2023-03-27T23:38:53.963Z,-4.34
2023-03-27T23:41:23.038Z,-4.39
2023-03-27T23:43:51.230Z,-4.38
2023-03-27T23:46:19.775Z,-4.39
2023-03-27T23:48:47.968Z,-4.40
2023-03-27T23:51:17.061Z,-4.41
2023-03-27T23:53:45.509Z,-4.42
2023-03-27T23:56:13.642Z,-4.43
2023-03-27T23:58:41.859Z,-4.45
